Coweta, Oklahoma
Current Conditions -  °F | °C
As of 6:53 PM on Wednesday 17 Dec 2014 (Local Time) from KRVS Reporting Station
Light Rain Light Rain  
Wind Chill: 32°   Ceiling: 800
Heat Index: 37°   Visibility: 8mi
Dew Point: 35°   Wind: 6mph
Humidity: 93%   Direction: 100°E
Pressure: 30.2"   Gusts: NA
Location:  35.95°N, 95.65°W
Report Text: KRVS 180053Z 10005KT 8SM -RA BKN008 OVC035 03/02 A3020 RMK AO2 CIG 006V011 SLP233 P0001 T00280017
Loading
Personal Weather Stations






























Interactive Weather Map New forecast layout! Learn more

10-Day Weather Forecast

Advertisements
Track Severe Weather on mobile